createdAt,value
2023-04-16T00:01:19.681Z,36.15
2023-04-16T00:04:04.784Z,31.70
2023-04-16T00:06:49.914Z,36.42
2023-04-16T00:09:35.035Z,32.83
2023-04-16T00:12:20.266Z,39.42
2023-04-16T00:15:06.044Z,33.03
2023-04-16T00:17:50.932Z,34.97
2023-04-16T00:20:35.687Z,39.03
2023-04-16T00:23:21.193Z,34.92
2023-04-16T00:26:06.192Z,36.67
2023-04-16T00:28:52.046Z,36.45
2023-04-16T00:31:36.901Z,43.83
2023-04-16T00:34:22.124Z,37.40
2023-04-16T00:37:07.082Z,33.95
2023-04-16T00:39:52.269Z,38.95
2023-04-16T00:42:37.984Z,34.25
2023-04-16T00:45:22.792Z,40.20
2023-04-16T00:48:07.738Z,36.78
2023-04-16T00:50:54.954Z,39.17
2023-04-16T00:53:40.582Z,37.42
2023-04-16T00:56:25.667Z,37.63
2023-04-16T00:59:11.813Z,38.17
2023-04-16T01:01:56.980Z,38.42
2023-04-16T01:04:42.723Z,35.80
2023-04-16T01:07:27.565Z,41.80
2023-04-16T01:10:12.704Z,39.28
2023-04-16T01:12:58.237Z,33.15
2023-04-16T01:15:43.518Z,31.15
2023-04-16T01:18:28.280Z,39.10
2023-04-16T01:21:13.536Z,33.75
2023-04-16T01:24:02.493Z,38.40
2023-04-16T01:26:48.613Z,38.35
2023-04-16T01:29:34.733Z,36.53
2023-04-16T01:32:19.891Z,35.55
2023-04-16T01:35:05.441Z,40.85
2023-04-16T01:37:51.316Z,40.47
2023-04-16T01:40:37.411Z,37.75
2023-04-16T01:43:22.583Z,38.10
2023-04-16T01:46:29.632Z,33.13
2023-04-16T01:49:15.686Z,36.08
2023-04-16T01:52:01.070Z,34.67
2023-04-16T01:54:46.097Z,32.13
2023-04-16T01:57:31.600Z,35.60
2023-04-16T02:00:16.852Z,35.00
2023-04-16T02:03:01.986Z,39.97
2023-04-16T02:05:47.373Z,32.92
2023-04-16T02:08:32.496Z,35.45
2023-04-16T02:11:18.011Z,38.03
2023-04-16T02:14:02.748Z,33.40
2023-04-16T02:16:48.101Z,40.55
2023-04-16T02:19:33.254Z,38.65
2023-04-16T02:22:18.604Z,36.15
2023-04-16T02:25:03.700Z,40.13
2023-04-16T02:27:49.266Z,42.22
2023-04-16T02:30:36.507Z,44.13
2023-04-16T02:33:22.548Z,35.13
2023-04-16T02:36:07.533Z,42.35
2023-04-16T02:38:53.280Z,41.70
2023-04-16T02:41:38.536Z,34.63
2023-04-16T02:44:23.299Z,37.22
2023-04-16T02:47:08.561Z,36.75
2023-04-16T02:49:53.405Z,37.10
2023-04-16T02:52:38.324Z,35.65
2023-04-16T02:55:23.090Z,35.88
2023-04-16T02:58:08.444Z,35.65
2023-04-16T03:00:54.325Z,35.15
2023-04-16T03:03:39.665Z,32.05
2023-04-16T03:06:24.576Z,34.63
2023-04-16T03:09:09.543Z,36.70
2023-04-16T03:11:55.173Z,37.65
2023-04-16T03:14:42.260Z,36.13
2023-04-16T03:17:27.762Z,36.35
2023-04-16T03:20:12.675Z,35.60
2023-04-16T03:22:57.746Z,37.42
2023-04-16T03:25:44.476Z,33.97
2023-04-16T03:28:30.147Z,37.90
2023-04-16T03:31:15.295Z,36.63
2023-04-16T03:34:00.470Z,35.58
2023-04-16T03:36:45.819Z,36.00
2023-04-16T03:39:31.248Z,34.65
2023-04-16T03:42:16.076Z,33.53
2023-04-16T03:45:01.057Z,36.25
2023-04-16T03:47:48.482Z,35.40
2023-04-16T03:50:33.511Z,38.42
2023-04-16T03:53:18.905Z,34.70
2023-04-16T03:56:03.988Z,41.50
2023-04-16T03:58:49.615Z,37.30
2023-04-16T04:01:34.694Z,32.20
2023-04-16T04:04:20.294Z,32.40
2023-04-16T04:07:05.442Z,34.03
2023-04-16T04:09:50.770Z,38.47
2023-04-16T04:12:36.113Z,37.25
2023-04-16T04:15:21.305Z,35.50
2023-04-16T04:18:06.314Z,37.70
2023-04-16T04:20:52.105Z,34.67
2023-04-16T04:23:37.213Z,37.55
2023-04-16T04:26:22.398Z,33.67
2023-04-16T04:29:07.745Z,39.38
2023-04-16T04:31:53.377Z,37.45
2023-04-16T04:34:38.557Z,36.15
2023-04-16T04:37:23.485Z,32.90
2023-04-16T04:40:09.988Z,41.22
2023-04-16T04:42:54.986Z,32.90
2023-04-16T04:45:41.083Z,35.90
2023-04-16T04:48:27.488Z,39.15
2023-04-16T04:51:13.115Z,37.22
2023-04-16T04:53:58.483Z,32.25
2023-04-16T04:56:45.864Z,36.70
2023-04-16T04:59:31.073Z,37.30
2023-04-16T05:02:16.024Z,38.08
2023-04-16T05:05:01.185Z,39.15
2023-04-16T05:07:46.137Z,36.83
2023-04-16T05:10:31.375Z,36.78
2023-04-16T05:13:16.259Z,36.30
2023-04-16T05:16:01.115Z,37.35
2023-04-16T05:18:45.939Z,39.45
2023-04-16T05:21:31.250Z,37.47
2023-04-16T05:24:16.227Z,38.80
2023-04-16T05:27:01.443Z,36.22
2023-04-16T05:29:46.517Z,35.17
2023-04-16T05:32:31.506Z,36.40
2023-04-16T05:35:17.668Z,35.03
2023-04-16T05:38:04.268Z,34.53
2023-04-16T05:40:49.433Z,32.20
2023-04-16T05:43:34.262Z,29.23
2023-04-16T05:46:19.781Z,31.50
2023-04-16T05:49:04.551Z,39.33
2023-04-16T05:51:50.853Z,35.40
2023-04-16T05:54:36.046Z,33.67
2023-04-16T05:57:20.952Z,32.42
2023-04-16T06:00:06.816Z,31.08
2023-04-16T06:02:52.072Z,32.25
2023-04-16T06:05:37.120Z,32.70
2023-04-16T06:08:21.949Z,33.92
2023-04-16T06:11:07.399Z,33.40
2023-04-16T06:13:53.284Z,35.05
2023-04-16T06:16:38.259Z,29.73
2023-04-16T06:19:23.190Z,35.92
2023-04-16T06:22:07.944Z,34.55
2023-04-16T06:24:53.477Z,28.52
2023-04-16T06:27:38.170Z,28.83
2023-04-16T06:30:23.383Z,31.13
2023-04-16T06:33:08.657Z,33.40
2023-04-16T06:35:53.428Z,31.85
2023-04-16T06:38:38.530Z,29.45
2023-04-16T06:41:25.907Z,26.35
2023-04-16T06:44:10.820Z,30.70
2023-04-16T06:46:56.715Z,30.77
2023-04-16T06:49:41.558Z,30.55
2023-04-16T06:52:26.930Z,28.38
2023-04-16T06:55:11.911Z,29.02
2023-04-16T06:57:57.211Z,31.38
2023-04-16T07:00:43.536Z,29.13
2023-04-16T07:03:28.845Z,30.48
2023-04-16T07:06:14.043Z,29.33
2023-04-16T07:08:59.202Z,26.77
2023-04-16T07:11:45.651Z,31.50
2023-04-16T07:14:30.658Z,28.58
2023-04-16T07:17:15.792Z,28.77
2023-04-16T07:20:00.622Z,29.45
2023-04-16T07:22:45.732Z,27.40
2023-04-16T07:25:33.843Z,29.98
2023-04-16T07:28:18.603Z,30.70
2023-04-16T07:31:04.252Z,29.60
2023-04-16T07:33:49.762Z,27.98
2023-04-16T07:36:34.890Z,25.67
2023-04-16T07:39:19.793Z,33.28
2023-04-16T07:42:04.635Z,32.15
2023-04-16T07:44:49.998Z,29.80
2023-04-16T07:47:35.478Z,29.95
2023-04-16T07:50:20.626Z,30.17
2023-04-16T07:53:08.021Z,27.40
2023-04-16T07:55:53.928Z,29.38
2023-04-16T07:58:39.109Z,31.17
2023-04-16T08:01:23.891Z,31.33
2023-04-16T08:04:09.260Z,31.48
2023-04-16T08:06:54.435Z,28.38
2023-04-16T08:09:48.400Z,28.65
2023-04-16T08:12:33.812Z,26.52
2023-04-16T08:15:18.842Z,27.45
2023-04-16T08:18:06.324Z,36.45
2023-04-16T08:20:51.291Z,28.58
2023-04-16T08:23:36.895Z,29.10
2023-04-16T08:26:21.620Z,29.15
2023-04-16T08:29:07.136Z,31.13
2023-04-16T08:31:53.380Z,31.77
2023-04-16T08:34:38.679Z,34.45
2023-04-16T08:37:25.621Z,29.42
2023-04-16T08:40:11.179Z,32.03
2023-04-16T08:42:59.720Z,30.38
2023-04-16T08:45:48.398Z,31.60
2023-04-16T08:48:34.839Z,29.50
2023-04-16T08:51:22.549Z,34.22
2023-04-16T08:54:12.018Z,32.67
2023-04-16T08:56:58.494Z,32.25
2023-04-16T08:59:47.482Z,31.45
2023-04-16T09:02:33.920Z,28.55
2023-04-16T09:05:21.427Z,29.45
2023-04-16T09:08:06.920Z,30.83
2023-04-16T09:10:53.308Z,31.10
2023-04-16T09:13:38.324Z,29.70
2023-04-16T09:16:25.003Z,27.73
2023-04-16T09:19:12.663Z,29.40
2023-04-16T09:21:57.636Z,30.15
2023-04-16T09:24:43.294Z,27.05
2023-04-16T09:27:30.178Z,27.90
2023-04-16T09:30:25.892Z,29.25
2023-04-16T09:33:24.659Z,30.10
2023-04-16T09:36:10.744Z,27.10
2023-04-16T09:39:00.430Z,28.35
2023-04-16T09:41:47.781Z,29.35
2023-04-16T09:44:37.498Z,30.35
2023-04-16T09:47:23.677Z,30.55
2023-04-16T09:50:13.491Z,32.03
2023-04-16T09:53:02.622Z,30.55
2023-04-16T09:55:47.667Z,27.85
2023-04-16T09:58:36.183Z,30.95
2023-04-16T10:01:23.870Z,27.67
2023-04-16T10:04:11.058Z,31.13
2023-04-16T10:07:06.573Z,28.35
2023-04-16T10:09:53.125Z,29.23
2023-04-16T10:12:38.628Z,28.63
2023-04-16T10:15:23.713Z,25.88
2023-04-16T10:18:09.794Z,25.75
2023-04-16T10:20:55.293Z,28.50
2023-04-16T10:23:40.509Z,32.88
2023-04-16T10:26:26.201Z,27.40
2023-04-16T10:29:13.561Z,29.08
2023-04-16T10:31:59.828Z,29.33
2023-04-16T10:34:47.808Z,29.10
2023-04-16T10:37:33.873Z,25.25
2023-04-16T10:40:23.941Z,29.23
2023-04-16T10:43:11.208Z,31.20
2023-04-16T10:45:56.616Z,33.85
2023-04-16T10:48:49.831Z,28.38
2023-04-16T10:51:37.712Z,27.92
2023-04-16T10:54:28.745Z,24.98
2023-04-16T10:57:20.393Z,26.38
2023-04-16T11:00:22.009Z,22.40
2023-04-16T11:03:07.244Z,25.33
2023-04-16T11:05:52.332Z,26.48
2023-04-16T11:08:53.263Z,25.55
2023-04-16T11:11:39.801Z,29.30
2023-04-16T11:14:26.025Z,27.20
2023-04-16T11:17:11.097Z,23.33
2023-04-16T11:19:59.285Z,21.98
2023-04-16T11:22:47.127Z,21.85
2023-04-16T11:25:34.395Z,20.70
2023-04-16T11:28:20.028Z,23.45
2023-04-16T11:31:12.266Z,22.65
2023-04-16T11:33:57.742Z,21.90
2023-04-16T11:36:51.303Z,21.85
2023-04-16T11:39:51.301Z,21.90
2023-04-16T11:42:45.149Z,21.33
2023-04-16T11:48:21.923Z,22.40
2023-04-16T11:51:07.657Z,20.83
2023-04-16T11:53:53.840Z,20.17
2023-04-16T11:56:52.192Z,24.00
2023-04-16T12:00:02.358Z,22.75
2023-04-16T12:02:47.616Z,21.58
2023-04-16T12:05:39.425Z,18.52
2023-04-16T12:08:33.560Z,20.23
2023-04-16T12:11:18.516Z,18.17
2023-04-16T12:14:08.550Z,19.00
2023-04-16T12:16:53.480Z,18.50
2023-04-16T12:19:52.290Z,22.73
2023-04-16T12:22:39.665Z,16.30
2023-04-16T12:25:24.742Z,17.08
2023-04-16T12:28:10.135Z,34.40
2023-04-16T12:30:57.285Z,16.42
2023-04-16T12:33:42.547Z,15.98
2023-04-16T12:36:28.383Z,17.02
2023-04-16T12:39:15.374Z,22.27
2023-04-16T12:42:01.011Z,15.48
2023-04-16T12:44:48.429Z,14.93
2023-04-16T12:47:37.408Z,14.88
2023-04-16T12:50:22.989Z,17.33
2023-04-16T12:53:08.641Z,15.82
2023-04-16T12:55:55.760Z,17.00
2023-04-16T12:58:41.881Z,15.68
2023-04-16T13:01:27.441Z,17.52
2023-04-16T13:04:12.530Z,13.90
2023-04-16T13:07:00.641Z,13.40
2023-04-16T13:09:48.410Z,13.77
2023-04-16T13:15:20.199Z,12.27
2023-04-16T13:18:08.829Z,11.95
2023-04-16T13:20:54.615Z,12.50
2023-04-16T13:23:40.603Z,13.55
2023-04-16T13:26:26.962Z,13.00
2023-04-16T13:29:12.923Z,11.20
2023-04-16T13:31:59.020Z,14.65
2023-04-16T13:34:46.273Z,12.35
2023-04-16T13:40:16.320Z,12.63
2023-04-16T13:43:03.020Z,12.02
2023-04-16T13:45:48.068Z,11.77
2023-04-16T13:48:35.453Z,13.55
2023-04-16T13:54:07.152Z,10.85
2023-04-16T13:56:52.205Z,10.85
2023-04-16T13:59:37.652Z,11.70
2023-04-16T14:02:22.762Z,9.77
2023-04-16T14:05:08.406Z,9.27
2023-04-16T14:07:55.954Z,9.27
2023-04-16T14:10:41.363Z,10.75
2023-04-16T14:13:27.002Z,11.35
2023-04-16T14:16:12.086Z,8.18
2023-04-16T14:18:57.050Z,7.68
2023-04-16T14:21:42.369Z,9.02
2023-04-16T14:24:27.804Z,8.43
2023-04-16T14:27:13.553Z,7.00
2023-04-16T14:29:58.687Z,8.10
2023-04-16T14:32:46.080Z,8.80
2023-04-16T14:35:34.624Z,11.10
2023-04-16T14:38:19.820Z,10.30
2023-04-16T14:41:05.229Z,7.10
2023-04-16T14:43:50.904Z,10.18
2023-04-16T14:46:36.056Z,9.52
2023-04-16T14:49:21.761Z,9.38
2023-04-16T14:52:07.037Z,16.73
2023-04-16T14:54:55.048Z,10.48
2023-04-16T14:57:41.534Z,12.15
2023-04-16T15:00:27.770Z,9.05
2023-04-16T15:03:12.752Z,8.40
2023-04-16T15:05:59.361Z,8.90
2023-04-16T15:08:46.092Z,11.52
2023-04-16T15:11:38.841Z,11.85
2023-04-16T15:14:24.323Z,10.15
2023-04-16T15:17:09.825Z,10.98
2023-04-16T15:19:55.668Z,12.68
2023-04-16T15:22:40.677Z,15.40
2023-04-16T15:25:25.742Z,12.40
2023-04-16T15:28:12.404Z,11.90
2023-04-16T15:31:00.451Z,12.27
2023-04-16T15:33:45.546Z,11.85
2023-04-16T15:36:31.638Z,15.43
2023-04-16T15:39:18.039Z,12.98
2023-04-16T15:42:08.010Z,10.18
2023-04-16T15:44:54.870Z,12.35
2023-04-16T15:47:41.855Z,11.55
2023-04-16T15:50:27.691Z,13.57
2023-04-16T15:53:13.049Z,11.15
2023-04-16T15:55:58.370Z,10.07
2023-04-16T15:58:44.226Z,11.75
2023-04-16T16:01:31.262Z,13.20
2023-04-16T16:04:16.750Z,14.40
2023-04-16T16:07:05.808Z,10.45
2023-04-16T16:09:54.367Z,11.95
2023-04-16T16:12:40.738Z,13.85
2023-04-16T16:15:25.727Z,9.05
2023-04-16T16:18:11.013Z,13.10
2023-04-16T16:20:57.734Z,10.07
2023-04-16T16:23:42.805Z,10.43
2023-04-16T16:26:28.099Z,11.15
2023-04-16T16:29:14.724Z,13.20
2023-04-16T16:32:01.253Z,13.35
2023-04-16T16:34:46.507Z,13.25
2023-04-16T16:37:31.469Z,12.52
2023-04-16T16:40:16.334Z,12.23
2023-04-16T16:43:03.477Z,12.85
2023-04-16T16:45:51.196Z,14.85
2023-04-16T16:48:37.313Z,16.23
2023-04-16T16:51:24.582Z,16.13
2023-04-16T16:56:56.513Z,11.75
2023-04-16T16:59:42.567Z,15.73
2023-04-16T17:02:27.972Z,11.85
2023-04-16T17:05:12.893Z,15.38
2023-04-16T17:07:58.024Z,14.23
2023-04-16T17:10:43.650Z,16.15
2023-04-16T17:13:29.982Z,15.05
2023-04-16T17:16:17.486Z,15.68
2023-04-16T17:19:02.473Z,15.65
2023-04-16T17:21:47.566Z,16.17
2023-04-16T17:24:32.604Z,15.23
2023-04-16T17:27:18.209Z,14.35
2023-04-16T17:30:05.717Z,14.80
2023-04-16T17:32:51.139Z,18.60
2023-04-16T17:35:40.880Z,15.00
2023-04-16T17:38:26.180Z,15.55
2023-04-16T17:41:14.262Z,16.80
2023-04-16T17:43:59.415Z,16.85
2023-04-16T17:46:46.786Z,15.65
2023-04-16T17:49:31.752Z,14.10
2023-04-16T17:52:16.571Z,14.80
2023-04-16T17:55:03.685Z,14.63
2023-04-16T17:57:48.874Z,18.42
2023-04-16T18:00:36.549Z,14.75
2023-04-16T18:03:23.304Z,17.55
2023-04-16T18:06:10.046Z,14.68
2023-04-16T18:08:57.344Z,12.25
2023-04-16T18:11:42.521Z,16.70
2023-04-16T18:14:28.320Z,15.65
2023-04-16T18:17:13.411Z,17.27
2023-04-16T18:19:59.266Z,19.83
2023-04-16T18:22:44.376Z,13.10
2023-04-16T18:25:34.665Z,16.02
2023-04-16T18:28:20.152Z,16.08
2023-04-16T18:31:06.860Z,14.75
2023-04-16T18:33:56.823Z,13.60
2023-04-16T18:36:44.460Z,17.00
2023-04-16T18:39:33.701Z,16.33
2023-04-16T18:42:18.882Z,16.65
2023-04-16T18:45:09.660Z,16.95
2023-04-16T18:47:58.819Z,14.80
2023-04-16T18:50:45.641Z,14.38
2023-04-16T18:53:31.198Z,17.17
2023-04-16T18:56:17.407Z,16.63
2023-04-16T18:59:03.793Z,12.23
2023-04-16T19:01:51.363Z,14.15
2023-04-16T19:04:38.149Z,14.32
2023-04-16T19:07:23.300Z,14.10
2023-04-16T19:10:09.322Z,12.48
2023-04-16T19:12:58.519Z,11.52
2023-04-16T19:15:44.104Z,17.33
2023-04-16T19:18:34.804Z,14.35
2023-04-16T19:21:20.214Z,12.68
2023-04-16T19:24:07.196Z,14.27
2023-04-16T19:26:53.597Z,14.20
2023-04-16T19:29:41.241Z,20.20
2023-04-16T19:32:26.532Z,14.05
2023-04-16T19:35:13.384Z,12.68
2023-04-16T19:37:58.525Z,13.45
2023-04-16T19:40:48.828Z,14.13
2023-04-16T19:43:35.301Z,12.45
2023-04-16T19:46:20.787Z,12.23
2023-04-16T19:49:05.883Z,12.55
2023-04-16T19:51:53.795Z,17.73
2023-04-16T19:54:39.003Z,12.25
2023-04-16T19:57:28.331Z,13.07
2023-04-16T20:00:13.993Z,16.75
2023-04-16T20:02:59.246Z,18.73
2023-04-16T20:05:44.651Z,15.20
2023-04-16T20:08:30.794Z,14.48
2023-04-16T20:11:18.230Z,12.55
2023-04-16T20:14:03.312Z,12.38
2023-04-16T20:16:54.522Z,14.45
2023-04-16T20:19:39.788Z,14.07
2023-04-16T20:22:26.970Z,14.18
2023-04-16T20:25:14.293Z,16.88
2023-04-16T20:28:00.189Z,13.98
2023-04-16T20:30:45.380Z,11.80
2023-04-16T20:33:30.588Z,14.82
2023-04-16T20:36:16.824Z,15.27
2023-04-16T20:39:02.236Z,15.60
2023-04-16T20:41:56.849Z,18.08
2023-04-16T20:44:42.422Z,13.73
2023-04-16T20:47:28.476Z,15.40
2023-04-16T20:50:13.603Z,13.30
2023-04-16T20:52:58.614Z,15.13
2023-04-16T20:55:46.088Z,12.38
2023-04-16T20:58:31.489Z,15.95
2023-04-16T21:01:18.223Z,15.63
2023-04-16T21:04:03.916Z,17.25
2023-04-16T21:06:53.574Z,16.05
2023-04-16T21:09:38.764Z,12.68
2023-04-16T21:12:23.652Z,13.15
2023-04-16T21:15:08.862Z,15.45
2023-04-16T21:17:53.712Z,14.00
2023-04-16T21:20:39.123Z,13.25
2023-04-16T21:23:24.002Z,15.38
2023-04-16T21:26:08.967Z,18.80
2023-04-16T21:28:55.138Z,15.48
2023-04-16T21:31:40.407Z,14.13
2023-04-16T21:34:26.222Z,15.05
2023-04-16T21:37:11.162Z,14.25
2023-04-16T21:39:56.009Z,16.85
2023-04-16T21:42:42.209Z,15.23
2023-04-16T21:45:28.862Z,13.10
2023-04-16T21:48:17.830Z,15.50
2023-04-16T21:51:06.588Z,13.10
2023-04-16T21:53:52.872Z,16.30
2023-04-16T21:56:37.787Z,14.18
2023-04-16T21:59:23.156Z,14.88
2023-04-16T22:02:09.329Z,18.10
2023-04-16T22:04:54.329Z,14.95
2023-04-16T22:07:39.494Z,15.52
2023-04-16T22:10:26.195Z,16.58
2023-04-16T22:13:13.662Z,18.27
2023-04-16T22:16:01.594Z,17.02
2023-04-16T22:18:47.251Z,15.77
2023-04-16T22:21:32.012Z,15.75
2023-04-16T22:24:16.978Z,15.05
2023-04-16T22:27:03.086Z,15.98
2023-04-16T22:29:48.254Z,17.63
2023-04-16T22:32:33.860Z,14.18
2023-04-16T22:35:18.779Z,16.05
2023-04-16T22:38:03.609Z,16.38
2023-04-16T22:40:48.877Z,14.15
2023-04-16T22:43:37.999Z,14.63
2023-04-16T22:46:24.604Z,17.77
2023-04-16T22:49:10.059Z,14.68
2023-04-16T22:51:55.436Z,16.55
2023-04-16T22:54:41.027Z,18.30
2023-04-16T22:57:26.079Z,18.27
2023-04-16T23:00:15.752Z,19.13
2023-04-16T23:03:01.182Z,17.60
2023-04-16T23:05:46.315Z,19.75
2023-04-16T23:08:31.307Z,17.27
2023-04-16T23:11:16.199Z,18.05
2023-04-16T23:14:03.309Z,17.92
2023-04-16T23:16:48.135Z,18.48
2023-04-16T23:19:33.115Z,18.02
2023-04-16T23:22:17.859Z,15.45
2023-04-16T23:25:02.654Z,18.60
2023-04-16T23:27:47.741Z,20.25
2023-04-16T23:30:33.666Z,19.98
2023-04-16T23:33:19.647Z,20.38
2023-04-16T23:36:05.512Z,16.92
2023-04-16T23:38:50.825Z,16.58
2023-04-16T23:41:35.669Z,19.73
2023-04-16T23:44:20.513Z,20.02
2023-04-16T23:47:05.716Z,22.55
2023-04-16T23:49:50.598Z,19.00
2023-04-16T23:52:35.625Z,17.08
2023-04-16T23:55:21.360Z,19.63
2023-04-16T23:58:06.430Z,26.90
